createdAt,value
2023-02-13T00:00:53.201Z,30.57
2023-02-13T00:03:20.234Z,30.17
2023-02-13T00:05:47.217Z,32.30
2023-02-13T00:08:14.272Z,31.43
2023-02-13T00:10:41.287Z,29.00
2023-02-13T00:13:08.349Z,31.47
2023-02-13T00:15:35.371Z,31.70
2023-02-13T00:18:03.556Z,32.27
2023-02-13T00:20:30.589Z,31.67
2023-02-13T00:22:59.670Z,31.93
2023-02-13T00:25:27.192Z,31.17
2023-02-13T00:27:54.171Z,30.70
2023-02-13T00:30:22.856Z,30.00
2023-02-13T00:32:49.912Z,29.23
2023-02-13T00:35:17.002Z,28.40
2023-02-13T00:37:43.960Z,29.53
2023-02-13T00:40:11.787Z,29.27
2023-02-13T00:42:38.831Z,28.00
2023-02-13T00:45:06.063Z,30.03
2023-02-13T00:47:33.111Z,31.97
2023-02-13T00:50:00.249Z,32.20
2023-02-13T00:52:27.184Z,31.23
2023-02-13T00:54:54.176Z,32.50
2023-02-13T00:57:21.260Z,32.07
2023-02-13T00:59:51.159Z,33.43
2023-02-13T01:02:18.818Z,31.23
2023-02-13T01:04:45.809Z,31.60
2023-02-13T01:07:13.223Z,33.47
2023-02-13T01:09:40.954Z,32.47
2023-02-13T01:12:09.574Z,31.30
2023-02-13T01:14:36.823Z,32.07
2023-02-13T01:17:03.851Z,31.13
2023-02-13T01:19:30.779Z,31.70
2023-02-13T01:21:57.714Z,30.43
2023-02-13T01:24:24.864Z,30.60
2023-02-13T01:26:51.806Z,29.40
2023-02-13T01:29:18.758Z,29.07
2023-02-13T01:31:45.997Z,28.57
2023-02-13T01:34:13.032Z,29.50
2023-02-13T01:36:39.986Z,28.87
2023-02-13T01:39:06.937Z,31.00
2023-02-13T01:41:33.914Z,29.33
2023-02-13T01:44:02.269Z,29.03
2023-02-13T01:46:39.625Z,30.37
2023-02-13T01:49:14.826Z,28.87
2023-02-13T01:51:43.273Z,30.43
2023-02-13T01:54:18.506Z,29.63
2023-02-13T01:56:50.759Z,30.53
2023-02-13T01:59:25.335Z,29.57
2023-02-13T02:01:52.842Z,29.23
2023-02-13T02:04:32.121Z,27.53
2023-02-13T02:07:09.229Z,27.70
2023-02-13T02:09:40.636Z,28.97
2023-02-13T02:12:34.275Z,27.57
2023-02-13T02:15:04.120Z,27.70
2023-02-13T02:17:31.685Z,29.00
2023-02-13T02:20:04.925Z,30.00
2023-02-13T02:23:01.957Z,29.97
2023-02-13T02:25:59.663Z,28.73
2023-02-13T02:28:58.134Z,31.50
2023-02-13T02:32:12.507Z,30.33
2023-02-13T02:35:00.076Z,28.37
2023-02-13T02:37:47.989Z,31.13
2023-02-13T02:40:25.495Z,29.73
2023-02-13T02:43:28.489Z,29.40
2023-02-13T02:46:13.889Z,28.63
2023-02-13T02:49:13.803Z,29.70
2023-02-13T02:52:05.276Z,29.03
2023-02-13T02:55:05.918Z,28.60
2023-02-13T02:58:17.009Z,31.57
2023-02-13T03:01:03.428Z,28.83
2023-02-13T03:03:49.551Z,31.73
2023-02-13T03:06:25.920Z,31.73
2023-02-13T03:09:17.275Z,33.00
2023-02-13T03:12:13.641Z,32.40
2023-02-13T03:14:41.908Z,30.90
2023-02-13T03:17:32.154Z,31.23
2023-02-13T03:20:23.683Z,29.43
2023-02-13T03:23:05.117Z,29.73
2023-02-13T03:26:02.600Z,27.10
2023-02-13T03:29:06.166Z,20.70
2023-02-13T03:31:39.571Z,19.70
2023-02-13T03:34:14.019Z,18.50
2023-02-13T03:37:19.192Z,19.60
2023-02-13T03:40:36.060Z,23.50
2023-02-13T03:43:12.654Z,21.83
2023-02-13T03:45:54.619Z,20.63
2023-02-13T03:48:46.303Z,26.83
2023-02-13T03:51:24.435Z,23.77
2023-02-13T03:54:00.494Z,24.87
2023-02-13T03:56:48.853Z,25.40
2023-02-13T03:59:29.217Z,26.23
2023-02-13T04:02:15.208Z,24.47
2023-02-13T04:05:17.442Z,22.83
2023-02-13T04:07:44.474Z,21.77
2023-02-13T04:10:17.596Z,25.83
2023-02-13T04:13:09.744Z,23.93
2023-02-13T04:15:54.525Z,21.30
2023-02-13T04:18:27.046Z,23.30
2023-02-13T04:20:54.056Z,23.23
2023-02-13T04:23:21.100Z,21.27
2023-02-13T04:25:52.764Z,20.37
2023-02-13T04:28:19.759Z,18.90
2023-02-13T04:30:46.816Z,20.47
2023-02-13T04:33:13.965Z,19.03
2023-02-13T04:35:40.969Z,26.43
2023-02-13T04:38:08.005Z,25.60
2023-02-13T04:40:35.060Z,24.63
2023-02-13T04:43:02.263Z,27.50
2023-02-13T04:45:29.252Z,27.87
2023-02-13T04:47:57.622Z,26.60
2023-02-13T04:50:25.612Z,25.90
2023-02-13T04:52:57.786Z,25.10
2023-02-13T04:55:27.604Z,24.33
2023-02-13T04:57:57.746Z,23.67
2023-02-13T05:00:28.171Z,24.57
2023-02-13T05:03:00.812Z,22.37
2023-02-13T05:05:27.837Z,23.37
2023-02-13T05:07:54.873Z,25.47
2023-02-13T05:10:21.846Z,25.43
2023-02-13T05:12:48.989Z,27.40
2023-02-13T05:15:16.105Z,25.90
2023-02-13T05:17:47.238Z,26.37
2023-02-13T05:20:15.238Z,27.03
2023-02-13T05:23:11.689Z,28.60
2023-02-13T05:25:41.344Z,30.20
2023-02-13T05:28:41.300Z,30.70
2023-02-13T05:31:08.592Z,28.27
2023-02-13T05:33:35.780Z,28.60
2023-02-13T05:36:02.880Z,29.23
2023-02-13T05:38:29.844Z,30.13
2023-02-13T05:41:00.575Z,32.20
2023-02-13T05:43:29.698Z,30.93
2023-02-13T05:46:05.251Z,30.87
2023-02-13T05:48:32.764Z,28.90
2023-02-13T05:50:59.861Z,28.63
2023-02-13T05:53:27.511Z,30.53
2023-02-13T05:55:54.509Z,28.77
2023-02-13T05:58:22.180Z,28.50
2023-02-13T06:00:49.334Z,30.83
2023-02-13T06:03:16.300Z,30.37
2023-02-13T06:05:43.281Z,28.50
2023-02-13T06:08:10.472Z,29.03
2023-02-13T06:10:37.574Z,30.20
2023-02-13T06:13:04.738Z,28.80
2023-02-13T06:15:31.839Z,28.50
2023-02-13T06:17:58.930Z,29.83
2023-02-13T06:20:25.931Z,30.40
2023-02-13T06:22:53.497Z,32.30
2023-02-13T06:25:20.864Z,32.57
2023-02-13T06:27:48.969Z,30.63
2023-02-13T06:30:17.103Z,29.40
2023-02-13T06:32:44.455Z,30.57
2023-02-13T06:35:11.415Z,33.77
2023-02-13T06:37:39.377Z,29.00
2023-02-13T06:40:08.180Z,29.50
2023-02-13T06:42:35.223Z,29.80
2023-02-13T06:45:03.098Z,30.33
2023-02-13T06:47:30.132Z,29.77
2023-02-13T06:49:57.095Z,29.80
2023-02-13T06:52:24.152Z,28.07
2023-02-13T06:54:51.108Z,29.00
2023-02-13T06:57:18.129Z,28.73
2023-02-13T06:59:45.154Z,26.07
2023-02-13T07:02:13.346Z,25.63
2023-02-13T07:04:40.512Z,29.87
2023-02-13T07:07:07.492Z,25.77
2023-02-13T07:09:34.484Z,25.80
2023-02-13T07:12:05.778Z,26.63
2023-02-13T07:14:32.792Z,26.07
2023-02-13T07:16:59.716Z,27.90
2023-02-13T07:19:26.771Z,25.77
2023-02-13T07:21:53.771Z,27.83
2023-02-13T07:24:20.829Z,25.10
2023-02-13T07:26:47.845Z,25.43
2023-02-13T07:29:15.851Z,26.87
2023-02-13T07:31:42.900Z,26.40
2023-02-13T07:34:09.918Z,27.07
2023-02-13T07:36:37.135Z,28.33
2023-02-13T07:39:04.192Z,27.30
2023-02-13T07:41:31.120Z,29.10
2023-02-13T07:43:58.079Z,26.63
2023-02-13T07:46:25.105Z,26.43
2023-02-13T07:48:55.157Z,27.07
2023-02-13T07:51:25.392Z,24.40
2023-02-13T07:53:53.186Z,25.63
2023-02-13T07:56:20.139Z,27.33
2023-02-13T07:58:47.225Z,27.23
2023-02-13T08:01:16.854Z,27.30
2023-02-13T08:03:43.925Z,27.67
2023-02-13T08:06:10.962Z,28.47
2023-02-13T08:08:38.862Z,27.13
2023-02-13T08:11:31.299Z,27.93
2023-02-13T08:13:58.278Z,28.00
2023-02-13T08:16:25.320Z,29.00
2023-02-13T08:18:52.294Z,27.17
2023-02-13T08:21:19.215Z,33.13
2023-02-13T08:23:46.204Z,27.90
2023-02-13T08:26:13.188Z,26.60
2023-02-13T08:28:40.288Z,26.97
2023-02-13T08:31:13.708Z,23.27
2023-02-13T08:33:41.619Z,23.20
2023-02-13T08:36:09.175Z,21.43
2023-02-13T08:38:36.168Z,22.63
2023-02-13T08:41:03.728Z,21.50
2023-02-13T08:43:30.712Z,22.37
2023-02-13T08:46:01.470Z,21.53
2023-02-13T08:48:28.624Z,22.93
2023-02-13T08:50:55.849Z,21.77
2023-02-13T08:53:22.838Z,21.97
2023-02-13T08:55:57.868Z,22.20
2023-02-13T08:58:25.221Z,21.43
2023-02-13T09:00:54.065Z,19.63
2023-02-13T09:03:21.049Z,19.87
2023-02-13T09:05:49.068Z,19.13
2023-02-13T09:08:17.920Z,19.47
2023-02-13T09:10:45.943Z,18.83
2023-02-13T09:13:13.208Z,19.63
2023-02-13T09:15:40.876Z,18.73
2023-02-13T09:18:08.561Z,18.30
2023-02-13T09:20:36.329Z,17.80
2023-02-13T09:23:04.377Z,19.27
2023-02-13T09:25:31.367Z,17.97
2023-02-13T09:28:00.231Z,18.70
2023-02-13T09:30:27.305Z,18.93
2023-02-13T09:32:55.568Z,19.63
2023-02-13T09:35:23.709Z,19.00
2023-02-13T09:37:50.638Z,19.07
2023-02-13T09:40:32.555Z,17.83
2023-02-13T09:43:36.584Z,18.90
2023-02-13T09:46:32.910Z,18.43
2023-02-13T09:49:07.694Z,17.83
2023-02-13T09:51:35.528Z,18.17
2023-02-13T09:54:06.107Z,18.40
2023-02-13T09:57:03.405Z,19.07
2023-02-13T09:59:58.901Z,19.40
2023-02-13T10:02:49.870Z,18.97
2023-02-13T10:05:37.186Z,18.67
2023-02-13T10:08:11.327Z,18.27
2023-02-13T10:11:17.011Z,18.93
2023-02-13T10:14:01.725Z,18.07
2023-02-13T10:16:44.505Z,18.50
2023-02-13T10:19:35.977Z,18.20
2023-02-13T10:22:13.264Z,18.53
2023-02-13T10:24:48.350Z,19.37
2023-02-13T10:27:28.949Z,18.10
2023-02-13T10:30:19.754Z,18.43
2023-02-13T10:33:19.452Z,18.53
2023-02-13T10:36:09.249Z,18.40
2023-02-13T10:38:44.093Z,19.30
2023-02-13T10:41:49.063Z,19.63
2023-02-13T10:44:38.761Z,18.70
2023-02-13T10:47:27.145Z,17.77
2023-02-13T10:50:50.564Z,19.60
2023-02-13T10:54:03.845Z,19.00
2023-02-13T10:57:11.188Z,18.93
2023-02-13T11:00:01.600Z,18.73
2023-02-13T11:02:36.925Z,19.57
2023-02-13T11:05:26.194Z,18.67
2023-02-13T11:07:53.104Z,18.67
2023-02-13T11:10:24.678Z,18.93
2023-02-13T11:12:52.733Z,18.13
2023-02-13T11:15:30.200Z,18.50
2023-02-13T11:18:13.845Z,18.83
2023-02-13T11:20:48.179Z,18.23
2023-02-13T11:23:24.092Z,19.07
2023-02-13T11:26:02.982Z,19.63
2023-02-13T11:28:36.627Z,19.37
2023-02-13T11:31:37.875Z,19.40
2023-02-13T11:34:26.140Z,19.47
2023-02-13T11:37:29.627Z,17.97
2023-02-13T11:40:00.022Z,19.70
2023-02-13T11:42:35.054Z,19.20
2023-02-13T11:45:22.879Z,21.03
2023-02-13T11:47:50.113Z,19.10
2023-02-13T11:50:40.468Z,19.37
2023-02-13T11:53:25.686Z,18.17
2023-02-13T11:56:13.592Z,19.03
2023-02-13T11:58:41.978Z,19.17
2023-02-13T12:01:21.143Z,18.83
2023-02-13T12:04:19.154Z,19.27
2023-02-13T12:07:06.662Z,19.00
2023-02-13T12:09:33.716Z,19.00
2023-02-13T12:12:05.405Z,18.17
2023-02-13T12:14:41.107Z,19.17
2023-02-13T12:17:30.793Z,18.75
2023-02-13T12:19:59.426Z,19.33
2023-02-13T12:22:30.619Z,18.67
2023-02-13T12:25:31.718Z,18.45
2023-02-13T12:28:17.312Z,19.10
2023-02-13T12:31:05.678Z,19.50
2023-02-13T12:33:54.224Z,19.38
2023-02-13T12:36:46.763Z,19.38
2023-02-13T12:39:28.641Z,19.45
2023-02-13T12:42:06.780Z,19.75
2023-02-13T12:45:13.852Z,19.60
2023-02-13T12:48:33.136Z,19.38
2023-02-13T12:51:10.932Z,18.88
2023-02-13T12:53:56.550Z,19.98
2023-02-13T12:56:35.325Z,19.30
2023-02-13T12:59:20.496Z,18.73
2023-02-13T13:02:14.077Z,18.65
2023-02-13T13:05:32.930Z,18.77
2023-02-13T13:08:11.694Z,19.85
2023-02-13T13:11:23.145Z,19.13
2023-02-13T13:14:03.528Z,19.13
2023-02-13T13:16:49.829Z,18.77
2023-02-13T13:19:43.915Z,18.67
2023-02-13T13:22:30.637Z,18.90
2023-02-13T13:25:19.985Z,18.52
2023-02-13T13:27:53.190Z,19.15
2023-02-13T13:30:34.431Z,19.33
2023-02-13T13:33:23.177Z,18.45
2023-02-13T13:36:32.220Z,19.48
2023-02-13T13:39:09.244Z,19.35
2023-02-13T13:42:01.029Z,20.23
2023-02-13T13:44:51.354Z,19.35
2023-02-13T13:48:11.106Z,19.83
2023-02-13T13:50:41.968Z,18.05
2023-02-13T13:53:19.361Z,19.48
2023-02-13T13:56:09.415Z,19.13
2023-02-13T13:58:46.888Z,18.35
2023-02-13T14:01:32.182Z,18.73
2023-02-13T14:04:24.499Z,18.60
2023-02-13T14:07:14.737Z,19.08
2023-02-13T14:09:43.905Z,19.55
2023-02-13T14:12:50.318Z,18.48
2023-02-13T14:15:38.094Z,19.63
2023-02-13T14:18:22.252Z,18.73
2023-02-13T14:20:51.752Z,20.05
2023-02-13T14:24:04.188Z,19.08
2023-02-13T14:26:35.283Z,19.50
2023-02-13T14:29:11.216Z,17.83
2023-02-13T14:31:42.813Z,19.20
2023-02-13T14:34:22.661Z,19.00
2023-02-13T14:37:10.551Z,19.65
2023-02-13T14:39:42.067Z,19.33
2023-02-13T14:42:29.831Z,19.90
2023-02-13T14:45:00.341Z,19.40
2023-02-13T14:47:56.470Z,18.60
2023-02-13T14:50:30.049Z,20.60
2023-02-13T14:53:01.405Z,20.47
2023-02-13T14:55:40.631Z,18.77
2023-02-13T14:58:20.516Z,20.23
2023-02-13T15:01:03.538Z,20.17
2023-02-13T15:03:58.337Z,20.77
2023-02-13T15:06:30.212Z,21.10
2023-02-13T15:09:00.322Z,21.17
2023-02-13T15:11:43.061Z,21.63
2023-02-13T15:14:25.737Z,19.97
2023-02-13T15:17:04.063Z,20.90
2023-02-13T15:19:31.104Z,20.17
2023-02-13T15:22:01.577Z,19.77
2023-02-13T15:24:44.662Z,21.13
2023-02-13T15:27:31.137Z,20.17
2023-02-13T15:30:24.506Z,19.93
2023-02-13T15:33:01.256Z,20.23
2023-02-13T15:35:37.186Z,19.57
2023-02-13T15:38:30.164Z,20.33
2023-02-13T15:41:06.811Z,20.40
2023-02-13T15:43:45.190Z,21.90
2023-02-13T15:46:28.434Z,21.30
2023-02-13T15:48:58.952Z,21.90
2023-02-13T15:51:30.989Z,21.97
2023-02-13T15:54:06.546Z,21.07
2023-02-13T15:56:34.690Z,22.27
2023-02-13T15:59:02.969Z,21.30
2023-02-13T16:01:32.107Z,22.03
2023-02-13T16:04:06.541Z,20.87
2023-02-13T16:06:34.469Z,21.20
2023-02-13T16:09:03.408Z,21.20
2023-02-13T16:11:41.539Z,21.37
2023-02-13T16:14:14.383Z,21.20
2023-02-13T16:17:07.474Z,21.53
2023-02-13T16:19:51.498Z,20.97
2023-02-13T16:22:39.258Z,21.17
2023-02-13T16:25:12.132Z,21.07
2023-02-13T16:27:50.942Z,20.27
2023-02-13T16:30:38.839Z,21.17
2023-02-13T16:33:20.838Z,21.77
2023-02-13T16:35:59.021Z,19.40
2023-02-13T16:38:34.553Z,20.60
2023-02-13T16:41:07.082Z,21.00
2023-02-13T16:43:37.214Z,20.53
2023-02-13T16:46:39.791Z,20.33
2023-02-13T16:49:09.878Z,19.53
2023-02-13T16:51:49.250Z,19.37
2023-02-13T16:54:28.729Z,18.50
2023-02-13T16:57:06.519Z,22.60
2023-02-13T16:59:36.509Z,21.23
2023-02-13T17:02:34.203Z,20.43
2023-02-13T17:05:09.958Z,19.30
2023-02-13T17:07:39.280Z,19.37
2023-02-13T17:10:36.566Z,20.67
2023-02-13T17:13:17.634Z,18.67
2023-02-13T17:15:49.037Z,19.50
2023-02-13T17:18:16.018Z,20.37
2023-02-13T17:20:44.584Z,23.63
2023-02-13T17:23:24.000Z,21.87
2023-02-13T17:25:52.770Z,20.93
2023-02-13T17:28:29.279Z,20.57
2023-02-13T17:30:58.810Z,19.03
2023-02-13T17:33:32.999Z,20.77
2023-02-13T17:36:00.004Z,20.63
2023-02-13T17:38:27.029Z,21.07
2023-02-13T17:40:54.242Z,21.33
2023-02-13T17:43:21.592Z,21.07
2023-02-13T17:45:50.000Z,21.97
2023-02-13T17:48:17.389Z,21.93
2023-02-13T17:50:44.466Z,22.37
2023-02-13T17:53:27.236Z,22.57
2023-02-13T17:55:54.242Z,28.67
2023-02-13T17:58:21.335Z,28.63
2023-02-13T18:00:48.766Z,29.83
2023-02-13T18:03:15.902Z,26.90
2023-02-13T18:05:42.899Z,29.23
2023-02-13T18:08:10.096Z,32.67
2023-02-13T18:10:37.994Z,35.93
2023-02-13T18:13:05.755Z,40.07
2023-02-13T18:15:35.457Z,30.73
2023-02-13T18:18:03.677Z,28.20
2023-02-13T18:20:31.589Z,26.30
2023-02-13T18:22:58.598Z,29.40
2023-02-13T18:25:25.657Z,27.13
2023-02-13T18:27:53.115Z,26.83
2023-02-13T18:30:21.562Z,25.43
2023-02-13T18:32:54.029Z,26.90
2023-02-13T18:35:22.738Z,26.33
2023-02-13T18:37:50.376Z,25.13
2023-02-13T18:40:17.866Z,23.87
2023-02-13T18:42:45.274Z,25.90
2023-02-13T18:45:12.442Z,24.57
2023-02-13T18:47:39.561Z,24.90
2023-02-13T18:50:08.095Z,24.83
2023-02-13T18:52:35.281Z,25.00
2023-02-13T18:55:03.270Z,24.63
2023-02-13T18:57:30.281Z,28.50
2023-02-13T18:59:57.270Z,27.87
2023-02-13T19:02:24.292Z,27.50
2023-02-13T19:04:51.415Z,26.97
2023-02-13T19:07:18.425Z,29.23
2023-02-13T19:09:47.129Z,32.43
2023-02-13T19:12:14.348Z,31.97
2023-02-13T19:14:41.305Z,27.27
2023-02-13T19:17:09.397Z,25.93
2023-02-13T19:19:37.209Z,25.30
2023-02-13T19:22:04.391Z,26.03
2023-02-13T19:24:31.480Z,25.37
2023-02-13T19:27:08.594Z,27.33
2023-02-13T19:29:35.531Z,28.10
2023-02-13T19:32:02.610Z,27.80
2023-02-13T19:34:29.700Z,27.07
2023-02-13T19:36:56.645Z,26.50
2023-02-13T19:39:23.616Z,25.93
2023-02-13T19:41:50.574Z,26.63
2023-02-13T19:44:17.637Z,26.80
2023-02-13T19:46:44.641Z,25.73
2023-02-13T19:49:11.712Z,24.70
2023-02-13T19:51:38.673Z,20.90
2023-02-13T19:54:08.038Z,20.30
2023-02-13T19:56:37.694Z,20.77
2023-02-13T19:59:06.963Z,23.63
2023-02-13T20:01:34.003Z,26.40
2023-02-13T20:04:01.148Z,26.57
2023-02-13T20:06:35.626Z,27.60
2023-02-13T20:09:09.978Z,27.73
2023-02-13T20:11:37.763Z,28.80
2023-02-13T20:14:05.455Z,27.53
2023-02-13T20:16:35.519Z,26.53
2023-02-13T20:19:09.557Z,26.37
2023-02-13T20:21:36.794Z,26.50
2023-02-13T20:24:04.893Z,27.40
2023-02-13T20:26:32.495Z,25.57
2023-02-13T20:29:00.535Z,27.70
2023-02-13T20:31:29.923Z,27.23
2023-02-13T20:33:57.998Z,26.37
2023-02-13T20:36:29.021Z,28.47
2023-02-13T20:39:00.060Z,26.50
2023-02-13T20:41:30.830Z,24.50
2023-02-13T20:44:07.884Z,26.57
2023-02-13T20:46:38.411Z,31.63
2023-02-13T20:49:06.379Z,38.13
2023-02-13T20:51:33.524Z,30.90
2023-02-13T20:54:00.490Z,29.70
2023-02-13T20:56:28.361Z,29.40
2023-02-13T20:59:00.421Z,30.27
2023-02-13T21:01:33.853Z,32.87
2023-02-13T21:04:01.385Z,29.17
2023-02-13T21:06:35.632Z,27.60
2023-02-13T21:09:05.911Z,25.67
2023-02-13T21:11:34.507Z,26.03
2023-02-13T21:14:03.514Z,26.63
2023-02-13T21:16:37.699Z,24.17
2023-02-13T21:19:09.315Z,23.93
2023-02-13T21:21:37.541Z,23.67
2023-02-13T21:24:08.789Z,24.23
2023-02-13T21:26:36.290Z,25.43
2023-02-13T21:29:04.279Z,23.87
2023-02-13T21:31:38.243Z,23.03
2023-02-13T21:34:08.747Z,24.30
2023-02-13T21:36:37.574Z,23.30
2023-02-13T21:39:08.036Z,23.40
2023-02-13T21:41:37.105Z,24.87
2023-02-13T21:44:04.437Z,23.53
2023-02-13T21:46:33.062Z,23.83
2023-02-13T21:49:06.454Z,23.37
2023-02-13T21:51:36.135Z,25.47
2023-02-13T21:54:05.179Z,26.30
2023-02-13T21:56:35.920Z,27.33
2023-02-13T21:59:04.154Z,26.03
2023-02-13T22:01:34.418Z,25.33
2023-02-13T22:04:05.161Z,27.23
2023-02-13T22:06:34.964Z,27.13
2023-02-13T22:09:12.108Z,26.57
2023-02-13T22:11:40.381Z,26.10
2023-02-13T22:14:12.013Z,26.30
2023-02-13T22:16:39.784Z,25.23
2023-02-13T22:19:07.507Z,26.70
2023-02-13T22:21:36.261Z,25.10
2023-02-13T22:24:08.863Z,26.60
2023-02-13T22:26:39.325Z,25.70
2023-02-13T22:29:12.431Z,25.13
2023-02-13T22:31:39.913Z,23.23
2023-02-13T22:34:07.781Z,26.47
2023-02-13T22:36:40.184Z,25.73
2023-02-13T22:39:10.379Z,24.77
2023-02-13T22:41:38.391Z,24.53
2023-02-13T22:44:05.644Z,19.30
2023-02-13T22:46:34.218Z,20.60
2023-02-13T22:49:02.236Z,19.63
2023-02-13T22:51:33.154Z,18.03
2023-02-13T22:54:00.782Z,21.03
2023-02-13T22:56:29.714Z,20.93
2023-02-13T22:58:57.199Z,21.47
2023-02-13T23:01:26.672Z,21.43
2023-02-13T23:03:54.934Z,19.50
2023-02-13T23:06:23.513Z,22.47
2023-02-13T23:08:53.355Z,21.07
2023-02-13T23:11:42.840Z,24.77
2023-02-13T23:14:10.526Z,23.67
2023-02-13T23:17:00.426Z,23.60
2023-02-13T23:19:29.826Z,23.70
2023-02-13T23:21:57.001Z,23.57
2023-02-13T23:24:24.075Z,24.80
2023-02-13T23:26:51.028Z,24.33
2023-02-13T23:29:18.232Z,22.20
2023-02-13T23:31:45.279Z,20.60
2023-02-13T23:34:12.421Z,21.83
2023-02-13T23:36:39.392Z,21.47
2023-02-13T23:39:06.722Z,20.60
2023-02-13T23:41:33.759Z,22.90
2023-02-13T23:44:00.710Z,24.30
2023-02-13T23:46:27.725Z,24.40
2023-02-13T23:48:54.717Z,26.30
2023-02-13T23:51:23.105Z,26.03
2023-02-13T23:53:50.139Z,23.60
2023-02-13T23:56:17.092Z,24.93
2023-02-13T23:58:44.021Z,24.30
